Airfield :
LOGIN :

Register | Disclaimer

   EN    FR    IT 

 










Legend :    VFR   Marginal VFR   IFR   Intensive IFR   Very Intensive IFR
Visi :
Ceiling :
>= 8 km
>= 3000ft
5 to 8 km
1000 to 3000 ft
1500m to 5 km
500 to 1000 ft
800 to 1500m
200 to 500 ft
< 800m
< 200 ft
Symbols :   Thunderstorms  Fog  Heavy snow  Heavy precipitations  Wind > 20 kt
SIGMETs :     Misc.  Thunderstorms  Icing  Turbulence  Mountain Waves  Volcanic Ashes






- Airport Elevation : 5600 ft
- IATA code : SMV


LSZS - Samedan

CURRENT METAR :
  • 281850Z AUTO 03006KT 9999 NCD 08/01 Q1015

EXPIRED METARs :
  • 281820Z AUTO 01005KT 330V070 9999 BKN060 09/00 Q1015
  • 281750Z AUTO 32005KT 290V050 9999 FEW050 BKN060 10/00 Q1014
  • 281720Z AUTO 30008KT 9999 FEW065 10/00 Q1014
  • 281650Z 30009KT 260V010 9999 FEW055 12/M00 Q1014 RMK W TL170
  • 281620Z 35013G25KT 330V030 9999 FEW055 12/M01 Q1014 RMK V TL170

TAF AMD TAF LSZS
Valid from the 28 at 17:00 until the 29 at 00:00 UTC


281722Z 2817/2824 30009KT 9999 FEW055 TX12/2817Z
BECMG 2819/2821 VRB02KT
ATIS : +41 81 834 93 24



MET'MAP, your aeronautical weather chart ! - Copyright ORBIFLY December 2007 - Disclaimer

ORBIFLY MET'MAP TEAM :

Programming & Development : Alexandra Zaïnal
Original concept : Baudouin d'Aumeries
Technical & hardware support : Manuel Goepfert
Assistance : Marc-Olivier Méhu

Contact : metmap@orbifly.com




SOURCES & CREDITS :

   NOAA